createdAt,value
2018-10-03T00:03:08.713Z,99.90
2018-10-03T00:08:12.352Z,99.90
2018-10-03T00:13:15.940Z,99.90
2018-10-03T00:18:19.715Z,99.90
2018-10-03T00:23:23.586Z,99.90
2018-10-03T00:28:27.284Z,99.90
2018-10-03T00:33:30.907Z,99.90
2018-10-03T00:38:34.736Z,99.90
2018-10-03T00:43:38.343Z,99.90
2018-10-03T00:48:41.944Z,99.90
2018-10-03T00:53:45.571Z,99.90
2018-10-03T00:58:49.200Z,99.90
2018-10-03T01:03:52.842Z,99.90
2018-10-03T01:08:56.460Z,99.90
2018-10-03T01:14:00.092Z,99.90
2018-10-03T01:19:03.695Z,99.90
2018-10-03T01:24:07.378Z,99.90
2018-10-03T01:29:11.006Z,99.90
2018-10-03T01:34:14.635Z,99.90
2018-10-03T01:39:18.231Z,99.90
2018-10-03T01:44:21.835Z,99.90
2018-10-03T01:49:25.564Z,99.90
2018-10-03T01:54:29.184Z,99.90
2018-10-03T01:59:32.894Z,99.90
2018-10-03T02:04:36.532Z,99.90
2018-10-03T02:09:40.347Z,99.90
2018-10-03T02:14:43.998Z,99.90
2018-10-03T02:19:47.588Z,99.90
2018-10-03T02:24:51.288Z,99.90
2018-10-03T02:29:54.916Z,99.90
2018-10-03T02:34:58.882Z,99.90
2018-10-03T02:40:02.483Z,99.90
2018-10-03T02:45:06.194Z,99.90
2018-10-03T02:50:09.812Z,99.90
2018-10-03T02:55:13.494Z,99.90
2018-10-03T03:00:17.110Z,99.90
2018-10-03T03:05:20.743Z,99.90
2018-10-03T03:10:24.353Z,99.90
2018-10-03T03:15:28.074Z,99.90
2018-10-03T03:20:31.692Z,99.90
2018-10-03T03:25:35.419Z,99.90
2018-10-03T03:30:39.044Z,99.90
2018-10-03T03:35:42.757Z,99.90
2018-10-03T03:40:46.376Z,99.90
2018-10-03T03:45:50.198Z,99.90
2018-10-03T03:50:53.834Z,99.90
2018-10-03T03:55:57.599Z,99.90
2018-10-03T04:01:01.216Z,99.90
2018-10-03T04:06:04.976Z,99.90
2018-10-03T04:11:08.562Z,99.90
2018-10-03T04:16:12.299Z,99.90
2018-10-03T04:21:15.988Z,99.90
2018-10-03T04:26:19.614Z,99.90
2018-10-03T04:31:23.234Z,99.90
2018-10-03T04:36:27.010Z,99.90
2018-10-03T04:41:30.627Z,99.90
2018-10-03T04:46:34.246Z,99.90
2018-10-03T04:51:37.931Z,99.90
2018-10-03T04:56:41.646Z,99.90
2018-10-03T05:01:45.259Z,99.90
2018-10-03T05:06:48.876Z,99.90
2018-10-03T05:11:53.312Z,99.90
2018-10-03T05:16:57.138Z,99.90
2018-10-03T05:22:00.770Z,99.90
2018-10-03T05:27:04.516Z,99.90
2018-10-03T05:32:08.116Z,99.90
2018-10-03T05:37:11.724Z,99.90
2018-10-03T05:42:15.426Z,99.90
2018-10-03T05:47:19.056Z,99.90
2018-10-03T05:52:22.652Z,99.90
2018-10-03T05:57:26.280Z,99.90
2018-10-03T06:02:29.891Z,99.90
2018-10-03T06:07:33.526Z,99.90
2018-10-03T06:12:37.154Z,99.90
2018-10-03T06:17:40.846Z,99.90
2018-10-03T06:22:45.495Z,99.90
2018-10-03T06:27:49.248Z,99.90
2018-10-03T06:32:53.663Z,99.90
2018-10-03T06:37:57.863Z,99.90
2018-10-03T06:43:02.083Z,99.90
2018-10-03T06:48:06.043Z,99.90
2018-10-03T06:53:09.725Z,99.90
2018-10-03T06:58:13.362Z,99.90
2018-10-03T07:03:17.014Z,99.90
2018-10-03T07:08:20.646Z,99.90
2018-10-03T07:13:24.323Z,99.90
2018-10-03T07:18:27.938Z,99.90
2018-10-03T07:23:31.627Z,99.90
2018-10-03T07:28:35.231Z,99.90
2018-10-03T07:33:38.891Z,99.70
2018-10-03T07:38:42.498Z,99.90
2018-10-03T07:43:46.211Z,99.80
2018-10-03T07:48:49.895Z,99.90
2018-10-03T07:53:53.499Z,99.80
2018-10-03T07:58:57.138Z,99.40
2018-10-03T08:04:00.725Z,99.50
2018-10-03T08:09:06.795Z,98.60
2018-10-03T08:14:10.411Z,98.90
2018-10-03T08:19:14.056Z,98.40
2018-10-03T08:24:17.730Z,98.60
2018-10-03T08:29:21.350Z,99.20
2018-10-03T08:34:25.164Z,98.10
2018-10-03T08:39:28.776Z,97.60
2018-10-03T08:44:32.379Z,96.70
2018-10-03T08:49:36.008Z,96.70
2018-10-03T08:54:39.651Z,95.10
2018-10-03T08:59:43.244Z,95.50
2018-10-03T09:04:46.899Z,95.90
2018-10-03T09:09:50.642Z,95.60
2018-10-03T09:14:54.286Z,95.10
2018-10-03T09:19:57.913Z,94.30
2018-10-03T09:25:01.537Z,94.50
2018-10-03T09:30:05.173Z,95.00
2018-10-03T09:35:08.888Z,93.20
2018-10-03T09:40:12.539Z,93.60
2018-10-03T09:45:16.200Z,93.80
2018-10-03T09:50:19.831Z,93.10
2018-10-03T09:55:23.535Z,92.70
2018-10-03T10:00:32.768Z,93.40
2018-10-03T10:05:36.318Z,93.50
2018-10-03T10:10:39.911Z,93.60
2018-10-03T10:15:43.516Z,94.40
2018-10-03T10:20:47.174Z,93.90
2018-10-03T10:25:50.783Z,94.40
2018-10-03T10:30:54.411Z,93.10
2018-10-03T10:35:58.116Z,94.60
2018-10-03T10:41:01.911Z,94.80
2018-10-03T10:46:05.544Z,93.30
2018-10-03T10:51:09.171Z,92.70
2018-10-03T10:56:12.891Z,94.70
2018-10-03T11:01:16.511Z,97.50
2018-10-03T11:06:20.200Z,97.70
2018-10-03T11:11:23.769Z,97.20
2018-10-03T11:16:27.390Z,96.60
2018-10-03T11:21:31.025Z,94.40
2018-10-03T11:26:34.895Z,94.40
2018-10-03T11:31:38.516Z,99.20
2018-10-03T11:36:42.132Z,99.90
2018-10-03T11:41:45.963Z,99.90
2018-10-03T11:46:49.576Z,99.90
2018-10-03T11:51:53.217Z,99.90
2018-10-03T11:56:56.929Z,99.90
2018-10-03T12:02:00.522Z,99.90
2018-10-03T12:07:04.127Z,98.90
2018-10-03T12:12:07.865Z,98.00
2018-10-03T12:17:11.479Z,96.60
2018-10-03T12:22:15.179Z,94.80
2018-10-03T12:27:18.778Z,94.00
2018-10-03T12:32:22.395Z,92.90
2018-10-03T12:37:26.010Z,93.70
2018-10-03T12:42:29.782Z,93.20
2018-10-03T12:47:33.374Z,92.00
2018-10-03T12:52:36.992Z,91.40
2018-10-03T12:57:40.607Z,92.20
2018-10-03T13:02:44.198Z,90.50
2018-10-03T13:07:48.019Z,90.50
2018-10-03T13:12:51.642Z,90.10
2018-10-03T13:17:56.275Z,89.30
2018-10-03T13:22:59.874Z,83.90
2018-10-03T13:28:03.482Z,83.10
2018-10-03T13:33:07.131Z,82.80
2018-10-03T13:38:10.786Z,83.90
2018-10-03T13:43:14.399Z,83.60
2018-10-03T13:48:18.035Z,81.60
2018-10-03T13:53:21.734Z,81.00
2018-10-03T13:58:25.338Z,77.20
2018-10-03T14:03:28.950Z,75.90
2018-10-03T14:08:32.566Z,76.50
2018-10-03T14:13:37.539Z,76.30
2018-10-03T14:18:41.251Z,78.50
2018-10-03T14:23:44.774Z,75.30
2018-10-03T14:28:48.387Z,72.60
2018-10-03T14:33:52.012Z,69.10
2018-10-03T14:38:55.627Z,66.50
2018-10-03T14:43:59.231Z,65.50
2018-10-03T14:49:02.824Z,66.30
2018-10-03T14:54:06.469Z,70.20
2018-10-03T14:59:10.079Z,68.60
2018-10-03T15:04:14.822Z,69.80
2018-10-03T15:09:18.451Z,70.80
2018-10-03T15:14:22.175Z,71.30
2018-10-03T15:19:25.778Z,69.60
2018-10-03T15:24:29.386Z,70.70
2018-10-03T15:29:33.067Z,71.40
2018-10-03T15:34:36.738Z,73.00
2018-10-03T15:39:40.358Z,73.90
2018-10-03T15:44:44.075Z,73.70
2018-10-03T15:49:47.673Z,70.80
2018-10-03T15:54:51.289Z,71.50
2018-10-03T15:59:54.867Z,71.80
2018-10-03T16:04:58.458Z,72.80
2018-10-03T16:10:02.068Z,73.80
2018-10-03T16:15:06.000Z,77.80
2018-10-03T16:20:10.882Z,74.20
2018-10-03T16:25:15.338Z,74.80
2018-10-03T16:30:18.953Z,75.40
2018-10-03T16:35:22.563Z,76.20
2018-10-03T16:40:26.183Z,76.80
2018-10-03T16:45:29.943Z,77.70
2018-10-03T16:50:33.558Z,77.90
2018-10-03T16:55:37.321Z,78.10
2018-10-03T17:00:40.925Z,77.30
2018-10-03T17:05:44.615Z,79.00
2018-10-03T17:10:48.306Z,81.70
2018-10-03T17:15:52.031Z,85.10
2018-10-03T17:20:55.677Z,87.50
2018-10-03T17:25:59.367Z,88.90
2018-10-03T17:31:03.002Z,90.20
2018-10-03T17:36:06.707Z,91.20
2018-10-03T17:41:10.323Z,91.70
2018-10-03T17:46:13.954Z,92.00
2018-10-03T17:51:17.567Z,92.30
2018-10-03T17:56:21.393Z,92.60
2018-10-03T18:01:26.359Z,92.60
2018-10-03T18:06:29.954Z,92.70
2018-10-03T18:11:33.571Z,92.60
2018-10-03T18:16:37.298Z,92.80
2018-10-03T18:21:40.892Z,92.70
2018-10-03T18:26:44.503Z,92.80
2018-10-03T18:31:48.148Z,92.80
2018-10-03T18:36:51.768Z,92.90
2018-10-03T18:41:55.419Z,93.00
2018-10-03T18:46:59.008Z,93.10
2018-10-03T18:52:02.647Z,93.50
2018-10-03T18:57:06.203Z,93.60
2018-10-03T19:02:10.047Z,94.10
2018-10-03T19:07:14.971Z,94.30
2018-10-03T19:12:18.730Z,94.40
2018-10-03T19:17:22.178Z,94.60
2018-10-03T19:22:25.841Z,94.80
2018-10-03T19:27:29.591Z,95.00
2018-10-03T19:32:33.291Z,95.40
2018-10-03T19:37:36.882Z,95.40
2018-10-03T19:42:40.499Z,95.40
2018-10-03T19:47:44.145Z,95.70
2018-10-03T19:52:47.846Z,96.00
2018-10-03T19:57:51.558Z,95.80
2018-10-03T20:02:55.215Z,95.90
2018-10-03T20:07:58.825Z,95.80
2018-10-03T20:13:02.436Z,96.40
2018-10-03T20:18:06.275Z,96.20
2018-10-03T20:23:10.035Z,96.50
2018-10-03T20:28:13.843Z,96.60
2018-10-03T20:33:17.651Z,96.70
2018-10-03T20:38:21.409Z,97.30
2018-10-03T20:43:26.386Z,96.90
2018-10-03T20:48:30.004Z,96.90
2018-10-03T20:53:33.720Z,97.10
2018-10-03T20:58:37.338Z,97.20
2018-10-03T21:03:41.739Z,97.00
2018-10-03T21:08:45.475Z,97.40
2018-10-03T21:13:49.476Z,97.50
2018-10-03T21:18:53.879Z,97.70
2018-10-03T21:23:57.555Z,98.00
2018-10-03T21:29:01.147Z,97.90
2018-10-03T21:34:05.767Z,98.20
2018-10-03T21:39:09.850Z,98.50
2018-10-03T21:44:13.731Z,98.60
2018-10-03T21:49:17.359Z,98.80
2018-10-03T21:54:21.004Z,98.80
2018-10-03T21:59:24.806Z,98.90
2018-10-03T22:04:29.271Z,98.90
2018-10-03T22:09:32.929Z,98.90
2018-10-03T22:14:36.571Z,99.00
2018-10-03T22:19:40.230Z,99.10
2018-10-03T22:24:43.921Z,99.70
2018-10-03T22:29:48.291Z,99.30
2018-10-03T22:34:52.276Z,99.30
2018-10-03T22:39:55.885Z,99.50
2018-10-03T22:44:59.490Z,99.70
2018-10-03T22:50:03.168Z,99.80
2018-10-03T22:55:06.986Z,99.90
2018-10-03T23:00:10.939Z,99.90
2018-10-03T23:05:14.627Z,99.90
2018-10-03T23:10:18.259Z,99.90
2018-10-03T23:15:21.924Z,99.90
2018-10-03T23:20:25.539Z,99.90
2018-10-03T23:25:29.130Z,99.90
2018-10-03T23:30:32.746Z,99.90
2018-10-03T23:35:36.364Z,99.90
2018-10-03T23:40:39.971Z,99.90
2018-10-03T23:45:43.671Z,99.90
2018-10-03T23:50:49.024Z,99.90
2018-10-03T23:55:52.958Z,99.90
